sensor_id;sensor_type;location;lat;lon;timestamp;pressure;altitude;pressure_sealevel;temperature;humidity
63399;BME280;49533;-34.520;150.798;2023-12-20T00:02:17;100585.00;;;21.39;61.71
63399;BME280;49533;-34.520;150.798;2023-12-20T00:04:44;100586.50;;;21.37;62.15
63399;BME280;49533;-34.520;150.798;2023-12-20T00:07:11;100586.91;;;21.35;61.61
63399;BME280;49533;-34.520;150.798;2023-12-20T00:09:38;100575.41;;;21.30;61.74
63399;BME280;49533;-34.520;150.798;2023-12-20T00:12:05;100570.69;;;21.30;61.44
63399;BME280;49533;-34.520;150.798;2023-12-20T00:14:33;100560.03;;;21.32;61.49
63399;BME280;49533;-34.520;150.798;2023-12-20T00:17:00;100552.53;;;21.33;61.03
63399;BME280;49533;-34.520;150.798;2023-12-20T00:19:27;100584.78;;;21.55;60.59
63399;BME280;49533;-34.520;150.798;2023-12-20T00:21:54;100584.44;;;21.60;60.39
63399;BME280;49533;-34.520;150.798;2023-12-20T00:24:21;100482.34;;;21.00;60.39
63399;BME280;49533;-34.520;150.798;2023-12-20T00:26:48;100571.41;;;21.64;60.20
63399;BME280;49533;-34.520;150.798;2023-12-20T00:29:15;100579.03;;;21.75;60.25
63399;BME280;49533;-34.520;150.798;2023-12-20T00:31:42;100573.53;;;21.78;60.01
63399;BME280;49533;-34.520;150.798;2023-12-20T00:34:09;100567.59;;;21.80;59.73
63399;BME280;49533;-34.520;150.798;2023-12-20T00:36:36;100556.09;;;21.74;59.84
63399;BME280;49533;-34.520;150.798;2023-12-20T00:39:03;100529.50;;;21.55;59.98
63399;BME280;49533;-34.520;150.798;2023-12-20T00:41:30;100525.16;;;21.58;60.04
63399;BME280;49533;-34.520;150.798;2023-12-20T00:43:57;100516.81;;;21.54;59.74
63399;BME280;49533;-34.520;150.798;2023-12-20T00:46:24;100546.72;;;21.86;59.81
63399;BME280;49533;-34.520;150.798;2023-12-20T00:48:51;100547.53;;;21.86;59.85
63399;BME280;49533;-34.520;150.798;2023-12-20T00:51:19;100562.13;;;21.87;59.40
63399;BME280;49533;-34.520;150.798;2023-12-20T00:53:46;100502.25;;;21.57;59.83
63399;BME280;49533;-34.520;150.798;2023-12-20T00:56:15;100501.88;;;21.62;59.38
63399;BME280;49533;-34.520;150.798;2023-12-20T00:58:43;100505.84;;;21.65;59.43
63399;BME280;49533;-34.520;150.798;2023-12-20T01:01:10;100530.72;;;21.65;59.43
63399;BME280;49533;-34.520;150.798;2023-12-20T01:03:37;100306.13;;;20.31;59.44
63399;BME280;49533;-34.520;150.798;2023-12-20T01:06:04;100357.31;;;20.62;59.64
63399;BME280;49533;-34.520;150.798;2023-12-20T01:08:31;100405.00;;;20.96;59.33
63399;BME280;49533;-34.520;150.798;2023-12-20T01:11:00;100504.28;;;21.64;59.70
63399;BME280;49533;-34.520;150.798;2023-12-20T01:13:30;100548.38;;;21.94;59.61
63399;BME280;49533;-34.520;150.798;2023-12-20T01:15:57;100555.47;;;21.95;59.41
63399;BME280;49533;-34.520;150.798;2023-12-20T01:18:24;100524.56;;;21.82;59.34
63399;BME280;49533;-34.520;150.798;2023-12-20T01:20:51;100490.03;;;21.58;59.39
63399;BME280;49533;-34.520;150.798;2023-12-20T01:23:18;100540.84;;;21.91;59.29
63399;BME280;49533;-34.520;150.798;2023-12-20T01:25:45;100469.38;;;21.45;59.33
63399;BME280;49533;-34.520;150.798;2023-12-20T01:28:13;100477.72;;;21.52;59.47
63399;BME280;49533;-34.520;150.798;2023-12-20T01:30:40;100547.53;;;21.90;59.09
63399;BME280;49533;-34.520;150.798;2023-12-20T01:33:07;100494.41;;;21.66;59.14
63399;BME280;49533;-34.520;150.798;2023-12-20T01:35:34;100438.75;;;21.23;59.34
63399;BME280;49533;-34.520;150.798;2023-12-20T01:38:01;100559.50;;;22.01;59.54
63399;BME280;49533;-34.520;150.798;2023-12-20T01:40:28;100387.66;;;20.99;59.18
63399;BME280;49533;-34.520;150.798;2023-12-20T01:43:13;100442.09;;;21.40;59.15
63399;BME280;49533;-34.520;150.798;2023-12-20T01:45:40;100537.66;;;21.89;59.00
63399;BME280;49533;-34.520;150.798;2023-12-20T01:48:08;100523.41;;;21.83;59.02
63399;BME280;49533;-34.520;150.798;2023-12-20T01:50:37;100550.00;;;22.02;59.38
63399;BME280;49533;-34.520;150.798;2023-12-20T01:53:06;100382.06;;;20.96;59.13
63399;BME280;49533;-34.520;150.798;2023-12-20T01:55:36;100549.22;;;22.05;59.01
63399;BME280;49533;-34.520;150.798;2023-12-20T01:58:09;100547.66;;;22.04;59.31
63399;BME280;49533;-34.520;150.798;2023-12-20T02:00:37;100322.19;;;20.59;58.88
63399;BME280;49533;-34.520;150.798;2023-12-20T02:03:05;100391.19;;;21.00;59.00
63399;BME280;49533;-34.520;150.798;2023-12-20T02:05:34;100539.75;;;22.06;59.17
63399;BME280;49533;-34.520;150.798;2023-12-20T02:08:01;100538.16;;;22.05;59.25
63399;BME280;49533;-34.520;150.798;2023-12-20T02:10:29;100536.59;;;22.04;59.52
63399;BME280;49533;-34.520;150.798;2023-12-20T02:12:56;100525.53;;;22.04;59.20
63399;BME280;49533;-34.520;150.798;2023-12-20T02:15:23;100507.69;;;21.98;59.24
63399;BME280;49533;-34.520;150.798;2023-12-20T02:17:51;100515.66;;;22.07;59.21
63399;BME280;49533;-34.520;150.798;2023-12-20T02:20:18;100493.38;;;21.85;59.34
63399;BME280;49533;-34.520;150.798;2023-12-20T02:22:45;100481.47;;;21.78;59.20
63399;BME280;49533;-34.520;150.798;2023-12-20T02:25:12;100511.63;;;21.97;59.53
63399;BME280;49533;-34.520;150.798;2023-12-20T02:27:40;100524.28;;;21.98;59.40
63399;BME280;49533;-34.520;150.798;2023-12-20T02:30:07;100499.28;;;21.84;59.54
63399;BME280;49533;-34.520;150.798;2023-12-20T02:32:35;100451.66;;;21.53;59.22
63399;BME280;49533;-34.520;150.798;2023-12-20T02:35:02;100450.84;;;21.49;59.80
63399;BME280;49533;-34.520;150.798;2023-12-20T02:37:29;100515.34;;;21.64;59.83
63399;BME280;49533;-34.520;150.798;2023-12-20T02:39:56;100404.00;;;20.78;61.04
63399;BME280;49533;-34.520;150.798;2023-12-20T02:42:23;100382.34;;;20.46;60.34
63399;BME280;49533;-34.520;150.798;2023-12-20T02:44:50;100452.22;;;20.88;60.23
63399;BME280;49533;-34.520;150.798;2023-12-20T02:47:17;100429.94;;;20.66;61.14
63399;BME280;49533;-34.520;150.798;2023-12-20T02:49:44;100514.03;;;21.10;61.10
63399;BME280;49533;-34.520;150.798;2023-12-20T02:52:12;100511.19;;;21.02;61.68
63399;BME280;49533;-34.520;150.798;2023-12-20T02:54:39;100479.75;;;20.80;61.98
63399;BME280;49533;-34.520;150.798;2023-12-20T02:57:06;100533.69;;;21.04;62.10
63399;BME280;49533;-34.520;150.798;2023-12-20T02:59:33;100254.78;;;19.25;61.50
63399;BME280;49533;-34.520;150.798;2023-12-20T03:02:00;100525.75;;;20.99;61.12
63399;BME280;49533;-34.520;150.798;2023-12-20T03:04:27;100506.63;;;20.83;60.75
63399;BME280;49533;-34.520;150.798;2023-12-20T03:06:55;100313.25;;;19.41;61.35
63399;BME280;49533;-34.520;150.798;2023-12-20T03:09:22;100525.28;;;20.94;61.18
63399;BME280;49533;-34.520;150.798;2023-12-20T03:11:49;100512.34;;;21.01;61.29
63399;BME280;49533;-34.520;150.798;2023-12-20T03:14:16;100520.34;;;21.10;61.27
63399;BME280;49533;-34.520;150.798;2023-12-20T03:16:49;100477.94;;;20.92;60.96
63399;BME280;49533;-34.520;150.798;2023-12-20T03:19:17;100472.06;;;20.97;60.80
63399;BME280;49533;-34.520;150.798;2023-12-20T03:21:45;100448.97;;;20.78;60.70
63399;BME280;49533;-34.520;150.798;2023-12-20T03:24:12;100511.72;;;21.19;60.62
63399;BME280;49533;-34.520;150.798;2023-12-20T03:26:40;100475.28;;;21.02;60.33
63399;BME280;49533;-34.520;150.798;2023-12-20T03:29:07;100350.94;;;20.20;59.99
63399;BME280;49533;-34.520;150.798;2023-12-20T03:31:34;100492.47;;;21.26;59.99
63399;BME280;49533;-34.520;150.798;2023-12-20T03:34:01;100433.25;;;20.86;60.02
63399;BME280;49533;-34.520;150.798;2023-12-20T03:36:28;100487.34;;;21.24;60.03
63399;BME280;49533;-34.520;150.798;2023-12-20T03:38:55;100426.94;;;20.82;60.00
63399;BME280;49533;-34.520;150.798;2023-12-20T03:41:22;100408.38;;;20.79;60.07
63399;BME280;49533;-34.520;150.798;2023-12-20T03:43:49;100441.41;;;21.09;60.03
63399;BME280;49533;-34.520;150.798;2023-12-20T03:46:16;100487.91;;;21.44;59.79
63399;BME280;49533;-34.520;150.798;2023-12-20T03:48:44;100388.97;;;20.72;59.75
63399;BME280;49533;-34.520;150.798;2023-12-20T03:51:11;100420.78;;;20.99;60.00
63399;BME280;49533;-34.520;150.798;2023-12-20T03:53:38;100426.41;;;21.10;59.99
63399;BME280;49533;-34.520;150.798;2023-12-20T03:56:07;100406.19;;;20.99;59.46
63399;BME280;49533;-34.520;150.798;2023-12-20T03:58:34;100309.28;;;20.33;59.52
63399;BME280;49533;-34.520;150.798;2023-12-20T04:01:01;100454.97;;;21.25;59.73
63399;BME280;49533;-34.520;150.798;2023-12-20T04:03:29;100435.91;;;21.16;59.74
63399;BME280;49533;-34.520;150.798;2023-12-20T04:05:56;100347.81;;;20.56;59.81
63399;BME280;49533;-34.520;150.798;2023-12-20T04:08:23;100478.84;;;21.44;59.37
63399;BME280;49533;-34.520;150.798;2023-12-20T04:10:50;100506.53;;;21.51;59.89
63399;BME280;49533;-34.520;150.798;2023-12-20T04:13:17;100337.81;;;20.48;59.73
63399;BME280;49533;-34.520;150.798;2023-12-20T04:15:44;100366.00;;;20.64;59.44
63399;BME280;49533;-34.520;150.798;2023-12-20T04:18:11;100337.13;;;20.54;59.49
63399;BME280;49533;-34.520;150.798;2023-12-20T04:20:38;100443.13;;;21.24;59.63
63399;BME280;49533;-34.520;150.798;2023-12-20T04:23:05;100230.69;;;19.79;59.33
63399;BME280;49533;-34.520;150.798;2023-12-20T04:25:32;100480.28;;;21.31;59.38
63399;BME280;49533;-34.520;150.798;2023-12-20T04:27:59;100497.13;;;21.59;58.99
63399;BME280;49533;-34.520;150.798;2023-12-20T04:30:26;100506.97;;;21.57;59.26
63399;BME280;49533;-34.520;150.798;2023-12-20T04:32:54;100431.94;;;21.10;59.51
63399;BME280;49533;-34.520;150.798;2023-12-20T04:35:23;100505.00;;;21.57;59.36
63399;BME280;49533;-34.520;150.798;2023-12-20T04:37:51;100491.13;;;21.50;59.48
63399;BME280;49533;-34.520;150.798;2023-12-20T04:40:18;100497.09;;;21.56;59.17
63399;BME280;49533;-34.520;150.798;2023-12-20T04:42:45;100490.38;;;21.53;59.44
63399;BME280;49533;-34.520;150.798;2023-12-20T04:45:12;100386.19;;;20.72;58.97
63399;BME280;49533;-34.520;150.798;2023-12-20T04:47:42;100512.84;;;21.52;59.16
63399;BME280;49533;-34.520;150.798;2023-12-20T04:50:09;100506.16;;;21.53;59.29
63399;BME280;49533;-34.520;150.798;2023-12-20T04:52:37;100463.63;;;21.23;59.03
63399;BME280;49533;-34.520;150.798;2023-12-20T04:55:05;100409.94;;;20.80;59.00
63399;BME280;49533;-34.520;150.798;2023-12-20T04:57:32;100477.16;;;21.36;58.67
63399;BME280;49533;-34.520;150.798;2023-12-20T04:59:59;100466.47;;;21.31;58.90
63399;BME280;49533;-34.520;150.798;2023-12-20T05:02:26;100465.25;;;21.28;58.99
63399;BME280;49533;-34.520;150.798;2023-12-20T05:04:53;100472.81;;;21.35;58.87
63399;BME280;49533;-34.520;150.798;2023-12-20T05:07:20;100453.31;;;21.17;58.80
63399;BME280;49533;-34.520;150.798;2023-12-20T05:09:48;100438.69;;;21.16;58.66
63399;BME280;49533;-34.520;150.798;2023-12-20T05:12:15;100489.88;;;21.44;58.51
63399;BME280;49533;-34.520;150.798;2023-12-20T05:14:42;100462.84;;;21.26;58.38
63399;BME280;49533;-34.520;150.798;2023-12-20T05:17:09;100482.28;;;21.34;58.95
63399;BME280;49533;-34.520;150.798;2023-12-20T05:19:36;100501.81;;;21.52;58.69
63399;BME280;49533;-34.520;150.798;2023-12-20T05:22:03;100475.16;;;21.33;58.69
63399;BME280;49533;-34.520;150.798;2023-12-20T05:24:30;100424.78;;;21.05;58.41
63399;BME280;49533;-34.520;150.798;2023-12-20T05:26:58;100460.13;;;21.30;58.83
63399;BME280;49533;-34.520;150.798;2023-12-20T05:29:25;100449.00;;;21.19;58.57
63399;BME280;49533;-34.520;150.798;2023-12-20T05:31:52;100447.03;;;21.20;58.72
63399;BME280;49533;-34.520;150.798;2023-12-20T05:34:20;100426.75;;;21.05;57.53
63399;BME280;49533;-34.520;150.798;2023-12-20T05:36:47;100480.19;;;21.20;57.73
63399;BME280;49533;-34.520;150.798;2023-12-20T05:39:14;100475.69;;;21.04;58.61
63399;BME280;49533;-34.520;150.798;2023-12-20T05:41:42;100450.94;;;20.78;59.23
63399;BME280;49533;-34.520;150.798;2023-12-20T05:44:09;100402.59;;;20.57;59.26
63399;BME280;49533;-34.520;150.798;2023-12-20T05:46:36;100387.88;;;20.46;59.41
63399;BME280;49533;-34.520;150.798;2023-12-20T05:49:04;100266.91;;;19.77;59.19
63399;BME280;49533;-34.520;150.798;2023-12-20T05:51:31;100272.13;;;19.86;60.27
63399;BME280;49533;-34.520;150.798;2023-12-20T05:53:58;100306.69;;;20.10;59.86
63399;BME280;49533;-34.520;150.798;2023-12-20T05:56:25;100459.63;;;21.17;60.20
63399;BME280;49533;-34.520;150.798;2023-12-20T05:58:52;100430.72;;;21.04;60.47
63399;BME280;49533;-34.520;150.798;2023-12-20T06:01:19;100301.72;;;20.26;61.04
63399;BME280;49533;-34.520;150.798;2023-12-20T06:03:46;100379.06;;;20.71;60.86
63399;BME280;49533;-34.520;150.798;2023-12-20T06:06:13;100383.97;;;20.84;61.02
63399;BME280;49533;-34.520;150.798;2023-12-20T06:08:41;100389.63;;;20.99;61.06
63399;BME280;49533;-34.520;150.798;2023-12-20T06:11:09;100455.81;;;21.33;60.84
63399;BME280;49533;-34.520;150.798;2023-12-20T06:13:36;100445.19;;;21.35;60.98
63399;BME280;49533;-34.520;150.798;2023-12-20T06:16:05;100425.63;;;21.13;60.95
63399;BME280;49533;-34.520;150.798;2023-12-20T06:18:33;100392.25;;;20.88;61.09
63399;BME280;49533;-34.520;150.798;2023-12-20T06:21:00;100431.22;;;21.17;60.81
63399;BME280;49533;-34.520;150.798;2023-12-20T06:23:28;100443.50;;;21.26;61.19
63399;BME280;49533;-34.520;150.798;2023-12-20T06:25:55;100456.28;;;21.38;61.21
63399;BME280;49533;-34.520;150.798;2023-12-20T06:28:23;100453.44;;;21.31;61.14
63399;BME280;49533;-34.520;150.798;2023-12-20T06:30:50;100435.53;;;21.14;61.42
63399;BME280;49533;-34.520;150.798;2023-12-20T06:33:18;100475.59;;;21.35;61.04
63399;BME280;49533;-34.520;150.798;2023-12-20T06:35:47;100415.38;;;21.10;61.38
63399;BME280;49533;-34.520;150.798;2023-12-20T06:38:14;100445.19;;;21.35;61.57
63399;BME280;49533;-34.520;150.798;2023-12-20T06:40:42;100440.03;;;21.33;61.24
63399;BME280;49533;-34.520;150.798;2023-12-20T06:43:09;100419.00;;;21.21;61.49
63399;BME280;49533;-34.520;150.798;2023-12-20T06:45:36;100425.84;;;21.35;61.42
63399;BME280;49533;-34.520;150.798;2023-12-20T06:48:03;100442.47;;;21.42;61.40
63399;BME280;49533;-34.520;150.798;2023-12-20T06:50:30;100449.53;;;21.36;61.16
63399;BME280;49533;-34.520;150.798;2023-12-20T06:52:57;100423.28;;;21.15;61.22
63399;BME280;49533;-34.520;150.798;2023-12-20T06:55:25;100462.16;;;21.37;61.51
63399;BME280;49533;-34.520;150.798;2023-12-20T06:57:52;100458.09;;;21.23;61.55
63399;BME280;49533;-34.520;150.798;2023-12-20T07:00:19;100472.41;;;21.36;61.63
63399;BME280;49533;-34.520;150.798;2023-12-20T07:02:47;100484.38;;;21.44;61.23
63399;BME280;49533;-34.520;150.798;2023-12-20T07:05:16;100501.38;;;21.46;61.31
63399;BME280;49533;-34.520;150.798;2023-12-20T07:07:46;100438.66;;;21.09;61.35
63399;BME280;49533;-34.520;150.798;2023-12-20T07:10:14;100476.31;;;21.28;61.34
63399;BME280;49533;-34.520;150.798;2023-12-20T07:12:41;100467.53;;;21.19;60.94
63399;BME280;49533;-34.520;150.798;2023-12-20T07:15:08;100440.56;;;21.05;61.07
63399;BME280;49533;-34.520;150.798;2023-12-20T07:17:35;100480.25;;;21.27;60.76
63399;BME280;49533;-34.520;150.798;2023-12-20T07:20:03;100510.44;;;21.43;61.12
63399;BME280;49533;-34.520;150.798;2023-12-20T07:22:31;100511.88;;;21.33;60.91
63399;BME280;49533;-34.520;150.798;2023-12-20T07:24:58;100522.25;;;21.40;60.42
63399;BME280;49533;-34.520;150.798;2023-12-20T07:27:26;100527.78;;;21.40;60.58
63399;BME280;49533;-34.520;150.798;2023-12-20T07:29:53;100477.59;;;21.00;60.96
63399;BME280;49533;-34.520;150.798;2023-12-20T07:32:20;100496.19;;;21.03;60.52
63399;BME280;49533;-34.520;150.798;2023-12-20T07:34:50;100521.97;;;21.15;60.54
63399;BME280;49533;-34.520;150.798;2023-12-20T07:37:18;100548.13;;;21.24;60.29
63399;BME280;49533;-34.520;150.798;2023-12-20T07:39:45;100565.16;;;21.34;60.38
63399;BME280;49533;-34.520;150.798;2023-12-20T07:42:12;100561.19;;;21.31;60.01
63399;BME280;49533;-34.520;150.798;2023-12-20T07:44:39;100533.03;;;21.18;60.41
63399;BME280;49533;-34.520;150.798;2023-12-20T07:47:06;100543.34;;;21.21;60.19
63399;BME280;49533;-34.520;150.798;2023-12-20T07:49:33;100444.06;;;20.61;59.99
63399;BME280;49533;-34.520;150.798;2023-12-20T07:52:00;100495.72;;;20.94;60.39
63399;BME280;49533;-34.520;150.798;2023-12-20T07:54:28;100541.38;;;21.22;60.05
63399;BME280;49533;-34.520;150.798;2023-12-20T07:56:56;100516.34;;;21.04;60.49
63399;BME280;49533;-34.520;150.798;2023-12-20T07:59:23;100537.66;;;21.07;60.14
63399;BME280;49533;-34.520;150.798;2023-12-20T08:01:50;100524.13;;;20.95;60.20
63399;BME280;49533;-34.520;150.798;2023-12-20T08:04:18;100571.34;;;21.20;60.21
63399;BME280;49533;-34.520;150.798;2023-12-20T08:06:45;100561.41;;;21.12;60.00
63399;BME280;49533;-34.520;150.798;2023-12-20T08:09:12;100560.94;;;21.06;60.04
63399;BME280;49533;-34.520;150.798;2023-12-20T08:11:39;100574.50;;;21.18;59.93
63399;BME280;49533;-34.520;150.798;2023-12-20T08:14:06;100531.97;;;20.93;60.09
63399;BME280;49533;-34.520;150.798;2023-12-20T08:16:33;100567.81;;;21.19;59.90
63399;BME280;49533;-34.520;150.798;2023-12-20T08:19:03;100568.16;;;21.18;59.92
63399;BME280;49533;-34.520;150.798;2023-12-20T08:21:30;100567.38;;;21.17;59.96
63399;BME280;49533;-34.520;150.798;2023-12-20T08:23:57;100583.16;;;21.17;59.94
63399;BME280;49533;-34.520;150.798;2023-12-20T08:26:27;100558.09;;;20.99;59.96
63399;BME280;49533;-34.520;150.798;2023-12-20T08:28:54;100566.41;;;21.02;59.73
63399;BME280;49533;-34.520;150.798;2023-12-20T08:31:21;100551.56;;;20.80;59.43
63399;BME280;49533;-34.520;150.798;2023-12-20T08:33:48;100583.34;;;21.01;59.46
63399;BME280;49533;-34.520;150.798;2023-12-20T08:36:16;100596.84;;;21.06;59.85
63399;BME280;49533;-34.520;150.798;2023-12-20T08:38:44;100568.63;;;20.90;60.13
63399;BME280;49533;-34.520;150.798;2023-12-20T08:41:11;100589.22;;;20.96;59.69
63399;BME280;49533;-34.520;150.798;2023-12-20T08:43:38;100566.31;;;20.92;59.76
63399;BME280;49533;-34.520;150.798;2023-12-20T08:46:08;100597.56;;;20.99;59.45
63399;BME280;49533;-34.520;150.798;2023-12-20T08:48:38;100352.63;;;19.42;59.20
63399;BME280;49533;-34.520;150.798;2023-12-20T08:51:06;100621.75;;;21.10;59.43
63399;BME280;49533;-34.520;150.798;2023-12-20T08:53:34;100629.63;;;21.08;59.41
63399;BME280;49533;-34.520;150.798;2023-12-20T08:56:02;100621.31;;;21.04;59.38
63399;BME280;49533;-34.520;150.798;2023-12-20T08:58:29;100626.84;;;21.08;59.55
63399;BME280;49533;-34.520;150.798;2023-12-20T09:00:56;100627.66;;;21.08;59.52
63399;BME280;49533;-34.520;150.798;2023-12-20T09:03:33;100498.78;;;20.25;59.58
63399;BME280;49533;-34.520;150.798;2023-12-20T09:06:03;100517.06;;;20.37;59.17
63399;BME280;49533;-34.520;150.798;2023-12-20T09:08:31;100380.13;;;19.38;59.44
63399;BME280;49533;-34.520;150.798;2023-12-20T09:11:02;100626.81;;;21.04;59.17
63399;BME280;49533;-34.520;150.798;2023-12-20T09:13:29;100466.00;;;19.93;59.21
63399;BME280;49533;-34.520;150.798;2023-12-20T09:15:58;100630.75;;;21.03;58.94
63399;BME280;49533;-34.520;150.798;2023-12-20T09:18:25;100469.94;;;19.92;59.28
63399;BME280;49533;-34.520;150.798;2023-12-20T09:20:52;100597.59;;;20.73;59.18
63399;BME280;49533;-34.520;150.798;2023-12-20T09:23:19;100471.91;;;19.92;59.47
63399;BME280;49533;-34.520;150.798;2023-12-20T09:25:46;100369.63;;;19.21;59.30
63399;BME280;49533;-34.520;150.798;2023-12-20T09:28:13;100445.78;;;19.59;59.42
63399;BME280;49533;-34.520;150.798;2023-12-20T09:30:40;100537.13;;;20.34;59.58
63399;BME280;49533;-34.520;150.798;2023-12-20T09:33:08;100472.13;;;19.80;59.28
63399;BME280;49533;-34.520;150.798;2023-12-20T09:35:35;100374.69;;;19.19;59.13
63399;BME280;49533;-34.520;150.798;2023-12-20T09:38:05;100625.09;;;20.92;59.28
63399;BME280;49533;-34.520;150.798;2023-12-20T09:40:32;100568.38;;;20.41;59.34
63399;BME280;49533;-34.520;150.798;2023-12-20T09:43:04;100608.94;;;20.64;59.69
63399;BME280;49533;-34.520;150.798;2023-12-20T09:45:33;100655.78;;;20.87;59.26
63399;BME280;49533;-34.520;150.798;2023-12-20T09:48:01;100653.38;;;20.85;59.70
63399;BME280;49533;-34.520;150.798;2023-12-20T09:50:33;100639.09;;;20.76;59.29
63399;BME280;49533;-34.520;150.798;2023-12-20T09:53:03;100517.94;;;19.88;59.44
63399;BME280;49533;-34.520;150.798;2023-12-20T09:55:33;100599.25;;;20.51;59.41
63399;BME280;49533;-34.520;150.798;2023-12-20T09:58:00;100516.72;;;19.85;59.08
63399;BME280;49533;-34.520;150.798;2023-12-20T10:00:27;100539.34;;;19.98;59.03
63399;BME280;49533;-34.520;150.798;2023-12-20T10:02:59;100471.53;;;19.44;59.40
63399;BME280;49533;-34.520;150.798;2023-12-20T10:05:33;100497.66;;;19.53;59.38
63399;BME280;49533;-34.520;150.798;2023-12-20T10:08:01;100597.25;;;20.21;59.53
63399;BME280;49533;-34.520;150.798;2023-12-20T10:10:32;100613.03;;;20.24;59.63
63399;BME280;49533;-34.520;150.798;2023-12-20T10:13:07;100502.56;;;19.64;59.35
63399;BME280;49533;-34.520;150.798;2023-12-20T10:15:36;100602.66;;;20.40;59.62
63399;BME280;49533;-34.520;150.798;2023-12-20T10:18:04;100390.56;;;19.02;59.34
63399;BME280;49533;-34.520;150.798;2023-12-20T10:20:31;100660.00;;;20.77;59.41
63399;BME280;49533;-34.520;150.798;2023-12-20T10:23:00;100595.50;;;20.36;59.49
63399;BME280;49533;-34.520;150.798;2023-12-20T10:25:27;100467.97;;;19.43;59.00
63399;BME280;49533;-34.520;150.798;2023-12-20T10:28:14;100654.03;;;20.75;59.43
63399;BME280;49533;-34.520;150.798;2023-12-20T10:30:43;100437.16;;;19.38;59.37
63399;BME280;49533;-34.520;150.798;2023-12-20T10:33:11;100555.59;;;20.03;59.61
63399;BME280;49533;-34.520;150.798;2023-12-20T10:35:39;100600.94;;;20.32;59.33
63399;BME280;49533;-34.520;150.798;2023-12-20T10:38:07;100423.78;;;19.13;59.22
63399;BME280;49533;-34.520;150.798;2023-12-20T10:40:37;100492.47;;;19.71;59.52
63399;BME280;49533;-34.520;150.798;2023-12-20T10:43:04;100590.28;;;20.31;59.39
63399;BME280;49533;-34.520;150.798;2023-12-20T10:45:32;100363.44;;;18.81;59.39
63399;BME280;49533;-34.520;150.798;2023-12-20T10:47:59;100632.66;;;20.69;59.60
63399;BME280;49533;-34.520;150.798;2023-12-20T10:50:27;100486.22;;;19.74;59.64
63399;BME280;49533;-34.520;150.798;2023-12-20T10:52:56;100628.69;;;20.66;59.67
63399;BME280;49533;-34.520;150.798;2023-12-20T10:55:24;100523.28;;;19.77;59.61
63399;BME280;49533;-34.520;150.798;2023-12-20T10:58:23;100354.97;;;18.90;59.35
63399;BME280;49533;-34.520;150.798;2023-12-20T11:00:57;100573.34;;;20.32;59.51
63399;BME280;49533;-34.520;150.798;2023-12-20T11:03:28;100434.13;;;19.20;59.45
63399;BME280;49533;-34.520;150.798;2023-12-20T11:06:04;100628.63;;;20.62;59.47
63399;BME280;49533;-34.520;150.798;2023-12-20T11:08:45;100459.19;;;19.61;59.54
63399;BME280;49533;-34.520;150.798;2023-12-20T11:11:28;100616.03;;;20.65;59.15
63399;BME280;49533;-34.520;150.798;2023-12-20T11:14:08;100537.94;;;20.08;59.37
63399;BME280;49533;-34.520;150.798;2023-12-20T11:16:42;100616.78;;;20.62;59.85
63399;BME280;49533;-34.520;150.798;2023-12-20T11:19:11;100436.84;;;19.43;59.38
63399;BME280;49533;-34.520;150.798;2023-12-20T11:21:42;100571.91;;;20.42;59.44
63399;BME280;49533;-34.520;150.798;2023-12-20T11:26:47;100486.84;;;19.91;59.27
63399;BME280;49533;-34.520;150.798;2023-12-20T11:29:34;100512.69;;;20.06;59.68
63399;BME280;49533;-34.520;150.798;2023-12-20T11:35:38;100490.41;;;19.91;59.49
63399;BME280;49533;-34.520;150.798;2023-12-20T11:37:46;100433.16;;;19.58;59.47
63399;BME280;49533;-34.520;150.798;2023-12-20T11:40:16;100578.41;;;20.53;59.62
63399;BME280;49533;-34.520;150.798;2023-12-20T11:42:49;100459.25;;;19.64;59.12
63399;BME280;49533;-34.520;150.798;2023-12-20T11:45:22;100594.28;;;20.60;59.35
63399;BME280;49533;-34.520;150.798;2023-12-20T11:47:50;100599.44;;;20.61;59.39
63399;BME280;49533;-34.520;150.798;2023-12-20T11:50:18;100437.84;;;19.54;59.25
63399;BME280;49533;-34.520;150.798;2023-12-20T11:52:45;100595.47;;;20.59;59.22
63399;BME280;49533;-34.520;150.798;2023-12-20T11:55:12;100442.97;;;19.55;59.56
63399;BME280;49533;-34.520;150.798;2023-12-20T11:57:42;100590.28;;;20.57;59.21
63399;BME280;49533;-34.520;150.798;2023-12-20T12:00:10;100524.72;;;20.20;59.37
63399;BME280;49533;-34.520;150.798;2023-12-20T12:02:37;100372.69;;;19.16;59.43
63399;BME280;49533;-34.520;150.798;2023-12-20T12:05:05;100438.16;;;19.49;59.27
63399;BME280;49533;-34.520;150.798;2023-12-20T12:07:33;100427.63;;;19.31;59.39
63399;BME280;49533;-34.520;150.798;2023-12-20T12:10:01;100590.22;;;20.54;59.46
63399;BME280;49533;-34.520;150.798;2023-12-20T12:12:30;100590.59;;;20.52;59.65
63399;BME280;49533;-34.520;150.798;2023-12-20T12:14:58;100429.09;;;19.48;59.49
63399;BME280;49533;-34.520;150.798;2023-12-20T12:17:25;100525.41;;;20.14;59.40
63399;BME280;49533;-34.520;150.798;2023-12-20T12:20:05;100582.69;;;20.51;59.13
63399;BME280;49533;-34.520;150.798;2023-12-20T12:22:33;100548.38;;;20.22;59.29
63399;BME280;49533;-34.520;150.798;2023-12-20T12:25:10;100383.63;;;19.12;59.51
63399;BME280;49533;-34.520;150.798;2023-12-20T12:27:41;100463.31;;;19.70;59.59
63399;BME280;49533;-34.520;150.798;2023-12-20T12:30:09;100476.78;;;19.75;59.72
63399;BME280;49533;-34.520;150.798;2023-12-20T12:32:38;100467.97;;;19.66;59.68